Redcliff, Canada
Current Conditions -  °F | °C
As of 2:00 PM on Sunday 23 Nov 2014 (Local Time) from CYXH Reporting Station
Clear Clear  
Wind Chill: -1°   Ceiling: Unl
Heat Index:   Visibility: 30mi
Dew Point: -4°   Wind: 9mph
Humidity: 60%   Direction: 210°SSW
Pressure: 29.79"   Gusts: NA
Location:  50.08°N, 110.79°W
Report Text: CYXH 232100Z 21008KT 30SM 03/M04 A2979 RMK SLP113
Loading
Personal Weather Stations






























Interactive Weather Map New forecast layout! Learn more

10-Day Weather Forecast

Advertisements
Track Severe Weather on mobile